sensor_id;sensor_type;location;lat;lon;timestamp;P1;durP1;ratioP1;P2;durP2;ratioP2
75090;SDS011;63674;48.048;8.306;2023-02-15T00:00:24;23.55;;;9.23;;
75090;SDS011;63674;48.048;8.306;2023-02-15T00:02:53;17.10;;;6.43;;
75090;SDS011;63674;48.048;8.306;2023-02-15T00:05:23;9.93;;;3.70;;
75090;SDS011;63674;48.048;8.306;2023-02-15T00:07:51;9.15;;;3.78;;
75090;SDS011;63674;48.048;8.306;2023-02-15T00:10:20;16.48;;;6.50;;
75090;SDS011;63674;48.048;8.306;2023-02-15T00:12:49;19.65;;;8.48;;
75090;SDS011;63674;48.048;8.306;2023-02-15T00:15:18;24.75;;;9.65;;
75090;SDS011;63674;48.048;8.306;2023-02-15T00:17:46;9.43;;;3.87;;
75090;SDS011;63674;48.048;8.306;2023-02-15T00:20:15;7.45;;;3.45;;
75090;SDS011;63674;48.048;8.306;2023-02-15T00:22:46;7.63;;;3.20;;
75090;SDS011;63674;48.048;8.306;2023-02-15T00:25:14;9.45;;;3.72;;
75090;SDS011;63674;48.048;8.306;2023-02-15T00:27:43;9.25;;;3.60;;
75090;SDS011;63674;48.048;8.306;2023-02-15T00:30:12;8.33;;;3.40;;
75090;SDS011;63674;48.048;8.306;2023-02-15T00:32:41;8.07;;;3.63;;
75090;SDS011;63674;48.048;8.306;2023-02-15T00:35:09;10.07;;;4.00;;
75090;SDS011;63674;48.048;8.306;2023-02-15T00:37:38;11.52;;;4.90;;
75090;SDS011;63674;48.048;8.306;2023-02-15T00:40:09;9.35;;;3.92;;
75090;SDS011;63674;48.048;8.306;2023-02-15T00:42:38;15.67;;;5.87;;
75090;SDS011;63674;48.048;8.306;2023-02-15T00:45:07;12.60;;;5.38;;
75090;SDS011;63674;48.048;8.306;2023-02-15T00:47:36;13.25;;;5.40;;
75090;SDS011;63674;48.048;8.306;2023-02-15T00:50:05;10.15;;;4.30;;
75090;SDS011;63674;48.048;8.306;2023-02-15T00:52:35;9.20;;;3.75;;
75090;SDS011;63674;48.048;8.306;2023-02-15T00:55:04;8.93;;;3.77;;
75090;SDS011;63674;48.048;8.306;2023-02-15T00:57:35;8.77;;;3.38;;
75090;SDS011;63674;48.048;8.306;2023-02-15T01:00:04;12.15;;;4.55;;
75090;SDS011;63674;48.048;8.306;2023-02-15T01:02:34;15.07;;;5.43;;
75090;SDS011;63674;48.048;8.306;2023-02-15T01:05:03;12.15;;;5.22;;
75090;SDS011;63674;48.048;8.306;2023-02-15T01:07:32;16.87;;;6.20;;
75090;SDS011;63674;48.048;8.306;2023-02-15T01:10:01;19.17;;;7.00;;
75090;SDS011;63674;48.048;8.306;2023-02-15T01:12:30;25.25;;;9.18;;
75090;SDS011;63674;48.048;8.306;2023-02-15T01:14:59;16.42;;;6.25;;
75090;SDS011;63674;48.048;8.306;2023-02-15T01:17:28;14.38;;;5.53;;
75090;SDS011;63674;48.048;8.306;2023-02-15T01:19:57;22.90;;;7.80;;
75090;SDS011;63674;48.048;8.306;2023-02-15T01:22:26;33.85;;;11.20;;
75090;SDS011;63674;48.048;8.306;2023-02-15T01:24:54;19.38;;;7.00;;
75090;SDS011;63674;48.048;8.306;2023-02-15T01:27:22;10.15;;;4.00;;
75090;SDS011;63674;48.048;8.306;2023-02-15T01:29:51;9.57;;;3.85;;
75090;SDS011;63674;48.048;8.306;2023-02-15T01:32:21;16.87;;;6.13;;
75090;SDS011;63674;48.048;8.306;2023-02-15T01:34:49;16.83;;;5.95;;
75090;SDS011;63674;48.048;8.306;2023-02-15T01:37:18;11.63;;;4.60;;
75090;SDS011;63674;48.048;8.306;2023-02-15T01:39:46;12.48;;;3.80;;
75090;SDS011;63674;48.048;8.306;2023-02-15T01:42:20;9.02;;;3.60;;
75090;SDS011;63674;48.048;8.306;2023-02-15T01:44:50;9.93;;;3.70;;
75090;SDS011;63674;48.048;8.306;2023-02-15T01:47:25;7.85;;;2.92;;
75090;SDS011;63674;48.048;8.306;2023-02-15T01:50:03;17.55;;;5.80;;
75090;SDS011;63674;48.048;8.306;2023-02-15T01:52:39;13.20;;;4.82;;
75090;SDS011;63674;48.048;8.306;2023-02-15T01:55:12;13.57;;;5.72;;
75090;SDS011;63674;48.048;8.306;2023-02-15T01:57:41;13.87;;;5.13;;
75090;SDS011;63674;48.048;8.306;2023-02-15T02:00:11;18.17;;;7.90;;
75090;SDS011;63674;48.048;8.306;2023-02-15T02:02:44;16.30;;;6.80;;
75090;SDS011;63674;48.048;8.306;2023-02-15T02:05:17;13.52;;;5.43;;
75090;SDS011;63674;48.048;8.306;2023-02-15T02:07:46;11.32;;;5.07;;
75090;SDS011;63674;48.048;8.306;2023-02-15T02:10:17;10.37;;;4.27;;
75090;SDS011;63674;48.048;8.306;2023-02-15T02:12:50;12.27;;;5.20;;
75090;SDS011;63674;48.048;8.306;2023-02-15T02:15:23;7.72;;;3.45;;
75090;SDS011;63674;48.048;8.306;2023-02-15T02:18:05;8.82;;;3.70;;
75090;SDS011;63674;48.048;8.306;2023-02-15T02:20:59;12.20;;;5.63;;
75090;SDS011;63674;48.048;8.306;2023-02-15T02:27:47;9.63;;;2.97;;
75090;SDS011;63674;48.048;8.306;2023-02-15T02:33:50;8.38;;;2.80;;
75090;SDS011;63674;48.048;8.306;2023-02-15T02:36:28;9.23;;;3.85;;
75090;SDS011;63674;48.048;8.306;2023-02-15T02:39:07;11.47;;;4.17;;
75090;SDS011;63674;48.048;8.306;2023-02-15T02:41:50;10.40;;;4.45;;
75090;SDS011;63674;48.048;8.306;2023-02-15T02:44:25;7.80;;;3.20;;
75090;SDS011;63674;48.048;8.306;2023-02-15T02:46:59;7.72;;;2.90;;
75090;SDS011;63674;48.048;8.306;2023-02-15T02:49:35;8.48;;;3.33;;
75090;SDS011;63674;48.048;8.306;2023-02-15T02:52:06;7.23;;;3.20;;
75090;SDS011;63674;48.048;8.306;2023-02-15T02:55:05;6.63;;;2.60;;
75090;SDS011;63674;48.048;8.306;2023-02-15T02:57:40;5.88;;;2.35;;
75090;SDS011;63674;48.048;8.306;2023-02-15T03:00:18;7.28;;;2.75;;
75090;SDS011;63674;48.048;8.306;2023-02-15T03:02:52;6.50;;;2.67;;
75090;SDS011;63674;48.048;8.306;2023-02-15T03:05:27;6.60;;;2.40;;
75090;SDS011;63674;48.048;8.306;2023-02-15T03:07:58;7.55;;;2.60;;
75090;SDS011;63674;48.048;8.306;2023-02-15T03:10:32;8.40;;;3.10;;
75090;SDS011;63674;48.048;8.306;2023-02-15T03:13:02;6.00;;;2.50;;
75090;SDS011;63674;48.048;8.306;2023-02-15T03:15:33;7.45;;;2.70;;
75090;SDS011;63674;48.048;8.306;2023-02-15T03:18:23;8.83;;;2.40;;
75090;SDS011;63674;48.048;8.306;2023-02-15T03:21:00;10.73;;;4.00;;
75090;SDS011;63674;48.048;8.306;2023-02-15T03:23:31;8.93;;;2.90;;
75090;SDS011;63674;48.048;8.306;2023-02-15T03:26:01;8.93;;;2.83;;
75090;SDS011;63674;48.048;8.306;2023-02-15T03:28:33;7.22;;;2.92;;
75090;SDS011;63674;48.048;8.306;2023-02-15T03:31:08;6.87;;;2.30;;
75090;SDS011;63674;48.048;8.306;2023-02-15T03:33:40;6.35;;;2.47;;
75090;SDS011;63674;48.048;8.306;2023-02-15T03:36:17;6.72;;;2.60;;
75090;SDS011;63674;48.048;8.306;2023-02-15T03:38:51;7.22;;;2.42;;
75090;SDS011;63674;48.048;8.306;2023-02-15T03:41:27;7.32;;;2.53;;
75090;SDS011;63674;48.048;8.306;2023-02-15T03:44:03;8.93;;;2.40;;
75090;SDS011;63674;48.048;8.306;2023-02-15T03:46:40;6.80;;;2.45;;
75090;SDS011;63674;48.048;8.306;2023-02-15T03:49:21;6.38;;;2.35;;
75090;SDS011;63674;48.048;8.306;2023-02-15T03:51:55;7.20;;;2.42;;
75090;SDS011;63674;48.048;8.306;2023-02-15T03:54:25;6.93;;;2.42;;
75090;SDS011;63674;48.048;8.306;2023-02-15T03:57:11;7.00;;;2.37;;
75090;SDS011;63674;48.048;8.306;2023-02-15T04:00:04;6.43;;;2.45;;
75090;SDS011;63674;48.048;8.306;2023-02-15T04:03:02;8.30;;;2.63;;
75090;SDS011;63674;48.048;8.306;2023-02-15T04:05:51;8.07;;;2.55;;
75090;SDS011;63674;48.048;8.306;2023-02-15T04:08:21;6.60;;;2.35;;
75090;SDS011;63674;48.048;8.306;2023-02-15T04:11:09;7.33;;;2.20;;
75090;SDS011;63674;48.048;8.306;2023-02-15T04:13:37;7.40;;;2.45;;
75090;SDS011;63674;48.048;8.306;2023-02-15T04:16:07;8.48;;;2.85;;
75090;SDS011;63674;48.048;8.306;2023-02-15T04:18:35;7.90;;;2.50;;
75090;SDS011;63674;48.048;8.306;2023-02-15T04:21:23;6.15;;;2.10;;
75090;SDS011;63674;48.048;8.306;2023-02-15T04:24:12;6.17;;;2.27;;
75090;SDS011;63674;48.048;8.306;2023-02-15T04:26:58;6.05;;;2.30;;
75090;SDS011;63674;48.048;8.306;2023-02-15T04:29:28;7.45;;;3.10;;
75090;SDS011;63674;48.048;8.306;2023-02-15T04:32:00;6.68;;;2.50;;
75090;SDS011;63674;48.048;8.306;2023-02-15T04:34:29;6.95;;;2.70;;
75090;SDS011;63674;48.048;8.306;2023-02-15T04:36:58;6.97;;;2.40;;
75090;SDS011;63674;48.048;8.306;2023-02-15T04:39:28;6.85;;;2.40;;
75090;SDS011;63674;48.048;8.306;2023-02-15T04:41:57;6.80;;;2.03;;
75090;SDS011;63674;48.048;8.306;2023-02-15T04:44:26;6.07;;;2.45;;
75090;SDS011;63674;48.048;8.306;2023-02-15T04:46:54;7.95;;;2.83;;
75090;SDS011;63674;48.048;8.306;2023-02-15T04:49:22;7.97;;;3.30;;
75090;SDS011;63674;48.048;8.306;2023-02-15T04:51:51;6.90;;;2.72;;
75090;SDS011;63674;48.048;8.306;2023-02-15T04:54:19;6.53;;;2.78;;
75090;SDS011;63674;48.048;8.306;2023-02-15T04:56:50;6.30;;;2.30;;
75090;SDS011;63674;48.048;8.306;2023-02-15T04:59:18;8.35;;;2.10;;
75090;SDS011;63674;48.048;8.306;2023-02-15T05:01:46;9.47;;;2.00;;
75090;SDS011;63674;48.048;8.306;2023-02-15T05:04:15;5.18;;;1.70;;
75090;SDS011;63674;48.048;8.306;2023-02-15T05:06:44;7.15;;;2.10;;
75090;SDS011;63674;48.048;8.306;2023-02-15T05:09:13;6.82;;;2.35;;
75090;SDS011;63674;48.048;8.306;2023-02-15T05:11:41;12.20;;;4.90;;
75090;SDS011;63674;48.048;8.306;2023-02-15T05:14:12;9.57;;;3.57;;
75090;SDS011;63674;48.048;8.306;2023-02-15T05:16:40;8.70;;;3.28;;
75090;SDS011;63674;48.048;8.306;2023-02-15T05:19:09;7.55;;;3.63;;
75090;SDS011;63674;48.048;8.306;2023-02-15T05:21:38;17.02;;;6.38;;
75090;SDS011;63674;48.048;8.306;2023-02-15T05:24:06;12.00;;;4.13;;
75090;SDS011;63674;48.048;8.306;2023-02-15T05:26:49;6.57;;;2.27;;
75090;SDS011;63674;48.048;8.306;2023-02-15T05:29:36;10.90;;;3.30;;
75090;SDS011;63674;48.048;8.306;2023-02-15T05:32:05;7.43;;;2.50;;
75090;SDS011;63674;48.048;8.306;2023-02-15T05:34:33;7.20;;;2.55;;
75090;SDS011;63674;48.048;8.306;2023-02-15T05:37:02;6.85;;;2.70;;
75090;SDS011;63674;48.048;8.306;2023-02-15T05:39:31;5.70;;;2.10;;
75090;SDS011;63674;48.048;8.306;2023-02-15T05:42:00;8.30;;;2.70;;
75090;SDS011;63674;48.048;8.306;2023-02-15T05:44:28;7.55;;;2.50;;
75090;SDS011;63674;48.048;8.306;2023-02-15T05:46:58;6.10;;;2.05;;
75090;SDS011;63674;48.048;8.306;2023-02-15T05:49:29;6.65;;;2.50;;
75090;SDS011;63674;48.048;8.306;2023-02-15T05:51:57;6.60;;;2.00;;
75090;SDS011;63674;48.048;8.306;2023-02-15T05:54:26;6.68;;;2.22;;
75090;SDS011;63674;48.048;8.306;2023-02-15T05:56:55;7.63;;;2.28;;
75090;SDS011;63674;48.048;8.306;2023-02-15T05:59:24;7.13;;;2.13;;
75090;SDS011;63674;48.048;8.306;2023-02-15T06:01:52;34.42;;;9.85;;
75090;SDS011;63674;48.048;8.306;2023-02-15T06:04:22;19.30;;;5.50;;
75090;SDS011;63674;48.048;8.306;2023-02-15T06:06:51;15.00;;;4.50;;
75090;SDS011;63674;48.048;8.306;2023-02-15T06:09:19;11.10;;;3.92;;
75090;SDS011;63674;48.048;8.306;2023-02-15T06:11:48;9.10;;;3.22;;
75090;SDS011;63674;48.048;8.306;2023-02-15T06:14:17;8.18;;;2.90;;
75090;SDS011;63674;48.048;8.306;2023-02-15T06:16:45;9.07;;;2.70;;
75090;SDS011;63674;48.048;8.306;2023-02-15T06:19:14;6.57;;;2.30;;
75090;SDS011;63674;48.048;8.306;2023-02-15T06:21:44;7.93;;;2.03;;
75090;SDS011;63674;48.048;8.306;2023-02-15T06:24:13;5.18;;;1.50;;
75090;SDS011;63674;48.048;8.306;2023-02-15T06:26:42;7.30;;;1.83;;
75090;SDS011;63674;48.048;8.306;2023-02-15T06:29:10;6.07;;;1.63;;
75090;SDS011;63674;48.048;8.306;2023-02-15T06:31:39;5.90;;;1.60;;
75090;SDS011;63674;48.048;8.306;2023-02-15T06:34:07;6.05;;;2.20;;
75090;SDS011;63674;48.048;8.306;2023-02-15T06:36:36;5.90;;;2.10;;
75090;SDS011;63674;48.048;8.306;2023-02-15T06:39:06;6.80;;;2.28;;
75090;SDS011;63674;48.048;8.306;2023-02-15T06:41:34;5.23;;;1.70;;
75090;SDS011;63674;48.048;8.306;2023-02-15T06:44:03;4.95;;;1.65;;
75090;SDS011;63674;48.048;8.306;2023-02-15T06:46:32;6.90;;;1.95;;
75090;SDS011;63674;48.048;8.306;2023-02-15T06:49:00;7.05;;;2.25;;
75090;SDS011;63674;48.048;8.306;2023-02-15T06:51:29;7.35;;;2.92;;
75090;SDS011;63674;48.048;8.306;2023-02-15T06:53:57;11.47;;;5.20;;
75090;SDS011;63674;48.048;8.306;2023-02-15T06:56:27;13.20;;;4.82;;
75090;SDS011;63674;48.048;8.306;2023-02-15T06:58:57;17.02;;;6.25;;
75090;SDS011;63674;48.048;8.306;2023-02-15T07:01:25;11.05;;;4.43;;
75090;SDS011;63674;48.048;8.306;2023-02-15T07:03:54;8.52;;;3.33;;
75090;SDS011;63674;48.048;8.306;2023-02-15T07:06:22;7.10;;;2.70;;
75090;SDS011;63674;48.048;8.306;2023-02-15T07:08:51;27.48;;;8.75;;
75090;SDS011;63674;48.048;8.306;2023-02-15T07:11:19;24.45;;;9.43;;
75090;SDS011;63674;48.048;8.306;2023-02-15T07:14:07;12.57;;;4.55;;
75090;SDS011;63674;48.048;8.306;2023-02-15T07:16:35;9.32;;;3.10;;
75090;SDS011;63674;48.048;8.306;2023-02-15T07:19:04;8.53;;;3.13;;
75090;SDS011;63674;48.048;8.306;2023-02-15T07:21:33;8.77;;;3.17;;
75090;SDS011;63674;48.048;8.306;2023-02-15T07:24:02;6.13;;;2.10;;
75090;SDS011;63674;48.048;8.306;2023-02-15T07:26:31;7.10;;;2.67;;
75090;SDS011;63674;48.048;8.306;2023-02-15T07:29:00;9.45;;;3.75;;
75090;SDS011;63674;48.048;8.306;2023-02-15T07:31:31;11.17;;;3.60;;
75090;SDS011;63674;48.048;8.306;2023-02-15T07:33:59;9.77;;;4.22;;
75090;SDS011;63674;48.048;8.306;2023-02-15T07:36:28;11.18;;;4.78;;
75090;SDS011;63674;48.048;8.306;2023-02-15T07:38:56;15.50;;;7.90;;
75090;SDS011;63674;48.048;8.306;2023-02-15T10:39:34;6.15;;;2.15;;
75090;SDS011;63674;48.048;8.306;2023-02-15T10:42:19;5.40;;;1.27;;
75090;SDS011;63674;48.048;8.306;2023-02-15T10:45:01;4.30;;;1.50;;
75090;SDS011;63674;48.048;8.306;2023-02-15T10:47:44;4.47;;;1.20;;
75090;SDS011;63674;48.048;8.306;2023-02-15T10:50:29;5.18;;;1.23;;
75090;SDS011;63674;48.048;8.306;2023-02-15T10:53:20;4.25;;;1.38;;
75090;SDS011;63674;48.048;8.306;2023-02-15T10:56:14;4.90;;;1.10;;
75090;SDS011;63674;48.048;8.306;2023-02-15T10:59:02;4.10;;;1.23;;
75090;SDS011;63674;48.048;8.306;2023-02-15T11:01:49;5.97;;;1.13;;
75090;SDS011;63674;48.048;8.306;2023-02-15T11:04:30;5.65;;;1.48;;
75090;SDS011;63674;48.048;8.306;2023-02-15T11:07:14;4.72;;;1.27;;
75090;SDS011;63674;48.048;8.306;2023-02-15T11:09:47;3.85;;;1.38;;
75090;SDS011;63674;48.048;8.306;2023-02-15T11:12:22;4.22;;;1.00;;
75090;SDS011;63674;48.048;8.306;2023-02-15T11:14:54;4.30;;;1.10;;
75090;SDS011;63674;48.048;8.306;2023-02-15T11:17:28;7.40;;;1.40;;
75090;SDS011;63674;48.048;8.306;2023-02-15T11:20:07;3.85;;;1.10;;
75090;SDS011;63674;48.048;8.306;2023-02-15T11:22:46;4.18;;;1.00;;
75090;SDS011;63674;48.048;8.306;2023-02-15T11:25:18;4.22;;;1.20;;
75090;SDS011;63674;48.048;8.306;2023-02-15T11:27:51;4.63;;;1.10;;
75090;SDS011;63674;48.048;8.306;2023-02-15T11:30:22;5.03;;;1.10;;
75090;SDS011;63674;48.048;8.306;2023-02-15T11:32:54;3.70;;;1.20;;
75090;SDS011;63674;48.048;8.306;2023-02-15T11:35:31;3.88;;;1.10;;
75090;SDS011;63674;48.048;8.306;2023-02-15T11:38:05;3.97;;;1.20;;
75090;SDS011;63674;48.048;8.306;2023-02-15T11:40:46;4.57;;;1.10;;
75090;SDS011;63674;48.048;8.306;2023-02-15T11:43:19;5.82;;;1.27;;
75090;SDS011;63674;48.048;8.306;2023-02-15T11:45:54;5.15;;;1.23;;
75090;SDS011;63674;48.048;8.306;2023-02-15T11:48:23;3.92;;;1.08;;
75090;SDS011;63674;48.048;8.306;2023-02-15T11:50:51;4.22;;;1.13;;
75090;SDS011;63674;48.048;8.306;2023-02-15T11:53:20;5.93;;;1.17;;
75090;SDS011;63674;48.048;8.306;2023-02-15T11:55:51;3.92;;;1.20;;
75090;SDS011;63674;48.048;8.306;2023-02-15T11:58:25;7.32;;;1.42;;
75090;SDS011;63674;48.048;8.306;2023-02-15T12:01:00;4.40;;;1.40;;
75090;SDS011;63674;48.048;8.306;2023-02-15T12:03:39;4.32;;;1.40;;
75090;SDS011;63674;48.048;8.306;2023-02-15T12:06:17;4.53;;;1.47;;
75090;SDS011;63674;48.048;8.306;2023-02-15T12:09:00;3.60;;;0.93;;
75090;SDS011;63674;48.048;8.306;2023-02-15T12:11:35;4.65;;;1.30;;
75090;SDS011;63674;48.048;8.306;2023-02-15T12:14:08;4.47;;;1.30;;
75090;SDS011;63674;48.048;8.306;2023-02-15T12:16:42;4.18;;;1.23;;
75090;SDS011;63674;48.048;8.306;2023-02-15T12:19:29;5.07;;;1.87;;
75090;SDS011;63674;48.048;8.306;2023-02-15T12:22:01;4.07;;;1.15;;
75090;SDS011;63674;48.048;8.306;2023-02-15T12:24:36;4.13;;;1.35;;
75090;SDS011;63674;48.048;8.306;2023-02-15T12:27:13;4.18;;;1.30;;
75090;SDS011;63674;48.048;8.306;2023-02-15T12:29:47;3.80;;;1.10;;
75090;SDS011;63674;48.048;8.306;2023-02-15T12:32:18;4.70;;;1.50;;
75090;SDS011;63674;48.048;8.306;2023-02-15T12:34:51;3.80;;;1.15;;
75090;SDS011;63674;48.048;8.306;2023-02-15T12:37:27;4.00;;;1.23;;
75090;SDS011;63674;48.048;8.306;2023-02-15T12:40:02;4.00;;;1.10;;
75090;SDS011;63674;48.048;8.306;2023-02-15T12:42:48;5.90;;;1.60;;
75090;SDS011;63674;48.048;8.306;2023-02-15T12:45:23;3.80;;;1.20;;
75090;SDS011;63674;48.048;8.306;2023-02-15T12:48:07;4.43;;;1.30;;
75090;SDS011;63674;48.048;8.306;2023-02-15T12:50:42;5.15;;;1.60;;
75090;SDS011;63674;48.048;8.306;2023-02-15T12:53:15;5.70;;;1.67;;
75090;SDS011;63674;48.048;8.306;2023-02-15T12:55:50;7.68;;;2.20;;
75090;SDS011;63674;48.048;8.306;2023-02-15T12:58:23;8.40;;;1.70;;
75090;SDS011;63674;48.048;8.306;2023-02-15T13:01:10;7.18;;;2.08;;
75090;SDS011;63674;48.048;8.306;2023-02-15T13:03:55;6.15;;;2.10;;
75090;SDS011;63674;48.048;8.306;2023-02-15T13:06:26;4.53;;;1.33;;
75090;SDS011;63674;48.048;8.306;2023-02-15T13:09:05;6.20;;;2.15;;
75090;SDS011;63674;48.048;8.306;2023-02-15T13:11:42;8.00;;;2.57;;
75090;SDS011;63674;48.048;8.306;2023-02-15T13:14:16;10.65;;;3.00;;
75090;SDS011;63674;48.048;8.306;2023-02-15T13:16:49;4.90;;;1.80;;
75090;SDS011;63674;48.048;8.306;2023-02-15T13:19:22;7.80;;;1.90;;
75090;SDS011;63674;48.048;8.306;2023-02-15T13:22:02;6.40;;;2.13;;
75090;SDS011;63674;48.048;8.306;2023-02-15T13:24:35;4.63;;;1.40;;
75090;SDS011;63674;48.048;8.306;2023-02-15T13:27:07;8.93;;;2.47;;
75090;SDS011;63674;48.048;8.306;2023-02-15T13:29:43;9.95;;;3.03;;
75090;SDS011;63674;48.048;8.306;2023-02-15T13:32:19;10.70;;;3.08;;
75090;SDS011;63674;48.048;8.306;2023-02-15T13:34:56;9.68;;;2.67;;
75090;SDS011;63674;48.048;8.306;2023-02-15T13:37:34;24.90;;;7.43;;
75090;SDS011;63674;48.048;8.306;2023-02-15T13:40:18;6.10;;;2.40;;
75090;SDS011;63674;48.048;8.306;2023-02-15T13:42:54;6.97;;;1.90;;
75090;SDS011;63674;48.048;8.306;2023-02-15T13:45:31;4.68;;;1.98;;
75090;SDS011;63674;48.048;8.306;2023-02-15T13:48:23;5.45;;;1.92;;
75090;SDS011;63674;48.048;8.306;2023-02-15T13:51:17;5.90;;;1.40;;
75090;SDS011;63674;48.048;8.306;2023-02-15T13:54:00;4.18;;;1.10;;
75090;SDS011;63674;48.048;8.306;2023-02-15T13:57:08;4.30;;;1.27;;
75090;SDS011;63674;48.048;8.306;2023-02-15T14:00:00;3.95;;;1.23;;
75090;SDS011;63674;48.048;8.306;2023-02-15T14:09:11;4.43;;;1.75;;
75090;SDS011;63674;48.048;8.306;2023-02-15T14:11:52;5.97;;;1.60;;
75090;SDS011;63674;48.048;8.306;2023-02-15T14:14:59;4.55;;;1.60;;
75090;SDS011;63674;48.048;8.306;2023-02-15T14:17:50;5.78;;;1.60;;
75090;SDS011;63674;48.048;8.306;2023-02-15T14:20:33;5.57;;;1.90;;
75090;SDS011;63674;48.048;8.306;2023-02-15T14:23:15;5.43;;;1.27;;
75090;SDS011;63674;48.048;8.306;2023-02-15T14:25:59;4.03;;;1.27;;
75090;SDS011;63674;48.048;8.306;2023-02-15T14:28:33;4.32;;;0.93;;
75090;SDS011;63674;48.048;8.306;2023-02-15T14:31:11;3.70;;;1.10;;
75090;SDS011;63674;48.048;8.306;2023-02-15T14:33:43;3.33;;;1.00;;
75090;SDS011;63674;48.048;8.306;2023-02-15T14:36:22;6.95;;;1.60;;
75090;SDS011;63674;48.048;8.306;2023-02-15T14:39:06;5.20;;;1.25;;
75090;SDS011;63674;48.048;8.306;2023-02-15T14:42:09;6.28;;;1.70;;
75090;SDS011;63674;48.048;8.306;2023-02-15T14:44:45;6.65;;;2.63;;
75090;SDS011;63674;48.048;8.306;2023-02-15T14:47:22;5.60;;;1.63;;
75090;SDS011;63674;48.048;8.306;2023-02-15T14:49:56;5.53;;;2.17;;
75090;SDS011;63674;48.048;8.306;2023-02-15T14:52:26;5.28;;;2.20;;
75090;SDS011;63674;48.048;8.306;2023-02-15T14:54:56;5.45;;;1.67;;
75090;SDS011;63674;48.048;8.306;2023-02-15T14:57:31;5.57;;;2.00;;
75090;SDS011;63674;48.048;8.306;2023-02-15T15:03:01;19.33;;;9.13;;
75090;SDS011;63674;48.048;8.306;2023-02-15T15:05:50;14.20;;;6.68;;
75090;SDS011;63674;48.048;8.306;2023-02-15T15:08:27;12.45;;;4.85;;
75090;SDS011;63674;48.048;8.306;2023-02-15T15:17:09;7.95;;;3.22;;
75090;SDS011;63674;48.048;8.306;2023-02-15T15:22:40;11.48;;;3.55;;
75090;SDS011;63674;48.048;8.306;2023-02-15T15:25:12;10.48;;;3.72;;
75090;SDS011;63674;48.048;8.306;2023-02-15T15:31:24;6.85;;;2.30;;
75090;SDS011;63674;48.048;8.306;2023-02-15T15:40:33;9.10;;;3.30;;
75090;SDS011;63674;48.048;8.306;2023-02-15T15:47:02;9.50;;;3.10;;
75090;SDS011;63674;48.048;8.306;2023-02-15T15:49:47;7.47;;;2.33;;
75090;SDS011;63674;48.048;8.306;2023-02-15T15:52:17;8.27;;;2.40;;
75090;SDS011;63674;48.048;8.306;2023-02-15T15:54:49;8.27;;;2.78;;
75090;SDS011;63674;48.048;8.306;2023-02-15T15:57:24;9.53;;;2.73;;
75090;SDS011;63674;48.048;8.306;2023-02-15T15:59:57;13.40;;;3.65;;
75090;SDS011;63674;48.048;8.306;2023-02-15T16:02:26;9.23;;;3.40;;
75090;SDS011;63674;48.048;8.306;2023-02-15T16:04:57;9.40;;;3.58;;
75090;SDS011;63674;48.048;8.306;2023-02-15T16:07:35;9.40;;;3.70;;
75090;SDS011;63674;48.048;8.306;2023-02-15T16:10:04;13.33;;;4.13;;
75090;SDS011;63674;48.048;8.306;2023-02-15T16:12:37;9.80;;;4.00;;
75090;SDS011;63674;48.048;8.306;2023-02-15T16:15:13;11.00;;;3.90;;
75090;SDS011;63674;48.048;8.306;2023-02-15T16:17:44;8.40;;;3.78;;
75090;SDS011;63674;48.048;8.306;2023-02-15T16:20:16;14.38;;;3.80;;
75090;SDS011;63674;48.048;8.306;2023-02-15T16:22:50;8.27;;;3.30;;
75090;SDS011;63674;48.048;8.306;2023-02-15T16:25:35;5.72;;;2.00;;
75090;SDS011;63674;48.048;8.306;2023-02-15T16:28:16;5.50;;;1.80;;
75090;SDS011;63674;48.048;8.306;2023-02-15T16:30:54;4.82;;;1.90;;
75090;SDS011;63674;48.048;8.306;2023-02-15T16:33:36;7.72;;;3.13;;
75090;SDS011;63674;48.048;8.306;2023-02-15T16:36:10;6.27;;;1.80;;
75090;SDS011;63674;48.048;8.306;2023-02-15T16:41:45;5.68;;;1.90;;
75090;SDS011;63674;48.048;8.306;2023-02-15T16:44:18;5.93;;;1.80;;
75090;SDS011;63674;48.048;8.306;2023-02-15T16:46:48;5.07;;;1.80;;
75090;SDS011;63674;48.048;8.306;2023-02-15T16:49:21;4.53;;;1.40;;
75090;SDS011;63674;48.048;8.306;2023-02-15T16:51:54;5.22;;;1.70;;
75090;SDS011;63674;48.048;8.306;2023-02-15T16:54:25;7.18;;;2.25;;
75090;SDS011;63674;48.048;8.306;2023-02-15T16:56:55;6.05;;;1.98;;
75090;SDS011;63674;48.048;8.306;2023-02-15T16:59:29;7.32;;;1.95;;
75090;SDS011;63674;48.048;8.306;2023-02-15T17:02:03;5.90;;;1.60;;
75090;SDS011;63674;48.048;8.306;2023-02-15T17:04:33;6.82;;;2.50;;
75090;SDS011;63674;48.048;8.306;2023-02-15T17:07:05;5.38;;;1.80;;
75090;SDS011;63674;48.048;8.306;2023-02-15T17:09:48;6.70;;;2.00;;
75090;SDS011;63674;48.048;8.306;2023-02-15T17:18:01;5.45;;;1.67;;
75090;SDS011;63674;48.048;8.306;2023-02-15T17:20:33;9.18;;;2.30;;
75090;SDS011;63674;48.048;8.306;2023-02-15T17:23:04;5.20;;;1.65;;
75090;SDS011;63674;48.048;8.306;2023-02-15T17:25:35;7.40;;;2.08;;
75090;SDS011;63674;48.048;8.306;2023-02-15T17:28:15;5.43;;;1.67;;
75090;SDS011;63674;48.048;8.306;2023-02-15T17:30:47;5.18;;;1.65;;
75090;SDS011;63674;48.048;8.306;2023-02-15T17:33:19;7.72;;;2.17;;
75090;SDS011;63674;48.048;8.306;2023-02-15T17:36:02;7.18;;;2.63;;
75090;SDS011;63674;48.048;8.306;2023-02-15T17:38:35;7.93;;;2.00;;
75090;SDS011;63674;48.048;8.306;2023-02-15T17:41:05;6.90;;;2.80;;
75090;SDS011;63674;48.048;8.306;2023-02-15T17:43:35;6.45;;;2.15;;
75090;SDS011;63674;48.048;8.306;2023-02-15T17:46:05;7.72;;;2.70;;
75090;SDS011;63674;48.048;8.306;2023-02-15T17:48:36;7.13;;;2.80;;
75090;SDS011;63674;48.048;8.306;2023-02-15T17:51:11;6.78;;;2.10;;
75090;SDS011;63674;48.048;8.306;2023-02-15T17:53:41;8.57;;;3.03;;
75090;SDS011;63674;48.048;8.306;2023-02-15T17:56:31;9.55;;;3.60;;
75090;SDS011;63674;48.048;8.306;2023-02-15T17:58:58;7.60;;;3.60;;
75090;SDS011;63674;48.048;8.306;2023-02-15T18:01:28;7.38;;;3.00;;
75090;SDS011;63674;48.048;8.306;2023-02-15T18:04:14;6.82;;;2.60;;
75090;SDS011;63674;48.048;8.306;2023-02-15T18:07:01;6.47;;;2.43;;
75090;SDS011;63674;48.048;8.306;2023-02-15T18:09:47;7.70;;;3.50;;
75090;SDS011;63674;48.048;8.306;2023-02-15T18:12:33;10.57;;;3.70;;
75090;SDS011;63674;48.048;8.306;2023-02-15T18:15:04;8.65;;;3.17;;
75090;SDS011;63674;48.048;8.306;2023-02-15T18:17:40;10.90;;;3.72;;
75090;SDS011;63674;48.048;8.306;2023-02-15T18:20:16;7.53;;;3.00;;
75090;SDS011;63674;48.048;8.306;2023-02-15T18:22:47;7.38;;;2.90;;
75090;SDS011;63674;48.048;8.306;2023-02-15T18:25:16;7.50;;;2.95;;
75090;SDS011;63674;48.048;8.306;2023-02-15T18:27:46;9.45;;;3.45;;
75090;SDS011;63674;48.048;8.306;2023-02-15T18:30:16;8.85;;;3.90;;
75090;SDS011;63674;48.048;8.306;2023-02-15T18:32:48;9.70;;;3.30;;
75090;SDS011;63674;48.048;8.306;2023-02-15T18:35:19;9.77;;;3.67;;
75090;SDS011;63674;48.048;8.306;2023-02-15T18:37:51;8.70;;;4.07;;
75090;SDS011;63674;48.048;8.306;2023-02-15T18:40:22;10.52;;;4.47;;
75090;SDS011;63674;48.048;8.306;2023-02-15T18:42:54;9.95;;;3.90;;
75090;SDS011;63674;48.048;8.306;2023-02-15T18:45:23;9.27;;;3.33;;
75090;SDS011;63674;48.048;8.306;2023-02-15T18:47:55;12.55;;;3.75;;
75090;SDS011;63674;48.048;8.306;2023-02-15T18:50:29;8.20;;;3.55;;
75090;SDS011;63674;48.048;8.306;2023-02-15T18:53:00;9.73;;;3.53;;
75090;SDS011;63674;48.048;8.306;2023-02-15T18:55:30;7.78;;;3.33;;
75090;SDS011;63674;48.048;8.306;2023-02-15T18:58:00;8.77;;;3.43;;
75090;SDS011;63674;48.048;8.306;2023-02-15T19:00:30;8.75;;;3.40;;
75090;SDS011;63674;48.048;8.306;2023-02-15T19:03:02;11.07;;;4.40;;
75090;SDS011;63674;48.048;8.306;2023-02-15T19:05:31;46.95;;;22.45;;
75090;SDS011;63674;48.048;8.306;2023-02-15T19:08:00;16.52;;;7.47;;
75090;SDS011;63674;48.048;8.306;2023-02-15T19:10:30;16.33;;;7.80;;
75090;SDS011;63674;48.048;8.306;2023-02-15T19:12:59;9.23;;;3.78;;